Coronel Enrique Soto Cano Air Base
MHSC : now visible

Airfield :











YOU CAN JOIN US ON...

 
LOGIN :

Register | Disclaimer

   EN    FR    IT 

 









Legend :    VFR   Marginal VFR   IFR   Intensive IFR   Very Intensive IFR
Visi :
Ceiling :
>= 8 km
>= 3000ft
5 to 8 km
1000 to 3000 ft
1500m to 5 km
500 to 1000 ft
800 to 1500m
200 to 500 ft
< 800m
< 200 ft
Symbols :   Thunderstorms  Fog  Heavy snow  Heavy precipitations  Wind > 20 kt







- Airport Elevation : 2061 ft
- IATA code : XPL


MHSC - Coronel Enrique Soto Cano Air Base

CURRENT METAR :
  • 180158Z 11007KT 9999 BKN090 25/22 A3001 RMK AO2A TSE13 SLPNO PWINO TSNO VISNO RWY35 $

EXPIRED METARs :
  • 180113Z 14007KT 9999 SCT075 26/22 A3000 RMK AO2A TSE13 SLPNO PWINO TSNO VISNO RWY35 $
  • 180058Z 14006KT 9000 TS SCT075 SCT090 26/22 A2999 RMK AO2A SLPNO PWINO VISNO RWY35 $
  • 172358Z 21005KT 9999 BKN080 25/21 A2995 RMK AO2A SHRAE03 SLPNO PWINO TSNO VISNO RWY35 $

TAF AMD TAF MHSC
Valid from the 17 at 23:00 until the 19 at 03:00 UTC


172353Z 1723/1903 12009KT 9999 SCT070 BKN100 QNH2989INS
TEMPO 1800/1803 VRB12G18KT 8000 -TSRA BKN050CB BKN100
BECMG 1803/1804 VRB06KT 9999 VCSH SCT070 QNH2996INS
BECMG 1811/1812 36009KT 9999 NSW SCT040 QNH3001INS TX25/1723Z TN22/1812Z
No reported NOTAMs for that airfield.



MET'MAP, your aeronautical weather chart ! - Copyright ORBIFLY December 2007 - Disclaimer

ORBIFLY MET'MAP TEAM :

Programming & Development : Alexandra Zaïnal
Concept & Development : Baudouin d'Aumeries
Co-Development & Prog : Marc-Olivier Méhu
Technical & hardware support : Manuel Goepfert

Contact : metmap@orbifly.com




SOURCES & CREDITS :

   NOAA       Earth
Advisory